Time;durP1;ratioP1;P1;durP2;ratioP2;P2;SDS_P1;SDS_P2;PMS_P1;PMS_P2;Temp;Humidity;BMP_temperature;BMP_pressure;BME280_temperature;BME280_humidity;BME280_pressure;Samples;Min_cycle;Max_cycle;Signal;HPM_P1;HPM_P2
2022/07/30 00:00:07;;;;;;;;;;;;;;;21.81;46.87;100689.91;4995163;28;6802;-75
2022/07/30 00:02:33;;;;;;;;;;;;;;;21.81;46.85;100687.31;4974887;28;7468;-75
2022/07/30 00:04:59;;;;;;;;;;;;;;;21.79;46.97;100692.53;5007761;28;6979;-75
2022/07/30 00:07:24;;;;;;;;;;;;;;;21.80;47.05;100688.19;4979765;28;6836;-75
2022/07/30 00:09:50;;;;;;;;;;;;;;;21.80;46.77;100689.06;5007144;28;6772;-75
2022/07/30 00:12:16;;;;;;;;;;;;;;;21.78;46.79;100696.88;5007398;28;7319;-75
2022/07/30 00:14:41;;;;;;;;;;;;;;;21.78;47.01;100696.88;4992148;28;7105;-75
2022/07/30 00:17:07;;;;;;;;;;;;;;;21.77;46.97;100695.13;5009617;28;7022;-75
2022/07/30 00:19:33;;;;;;;;;;;;;;;21.77;46.83;100697.72;5004271;28;7126;-75
2022/07/30 00:21:59;;;;;;;;;;;;;;;21.76;47.23;100693.38;5005394;28;6784;-75
2022/07/30 00:24:24;;;;;;;;;;;;;;;21.74;46.88;100700.34;5005195;28;6915;-75
2022/07/30 00:26:50;;;;;;;;;;;;;;;21.71;47.03;100697.69;5013629;28;6783;-75
2022/07/30 00:29:16;;;;;;;;;;;;;;;21.67;46.94;100690.72;5000801;28;7304;-75
2022/07/30 00:31:41;;;;;;;;;;;;;;;21.65;46.96;100700.25;5021047;28;7988;-76
2022/07/30 00:34:07;;;;;;;;;;;;;;;21.62;47.31;100694.97;5007997;28;6954;-75
2022/07/30 00:36:33;;;;;;;;;;;;;;;21.58;47.25;100698.44;5006622;28;7108;-75
2022/07/30 00:38:58;;;;;;;;;;;;;;;21.55;47.30;100699.28;5010160;28;7198;-75
2022/07/30 00:41:24;;;;;;;;;;;;;;;21.53;47.62;100702.72;4973632;28;6776;-76
2022/07/30 00:43:50;;;;;;;;;;;;;;;21.50;47.18;100706.22;5007998;28;7206;-76
2022/07/30 00:46:16;;;;;;;;;;;;;;;21.46;47.43;100700.09;4980153;28;6774;-76
2022/07/30 00:48:42;;;;;;;;;;;;;;;21.42;47.62;100695.69;5013128;28;7295;-76
2022/07/30 00:51:08;;;;;;;;;;;;;;;21.40;47.97;100693.97;4995642;28;6975;-76
2022/07/30 00:53:34;;;;;;;;;;;;;;;21.36;47.83;100699.13;4997425;28;7309;-76
2022/07/30 00:56:01;;;;;;;;;;;;;;;21.34;47.79;100710.41;4981896;28;6852;-76
2022/07/30 00:58:27;;;;;;;;;;;;;;;21.30;47.75;100703.44;4981054;28;6796;-76
2022/07/30 01:00:53;;;;;;;;;;;;;;;21.29;47.78;100706.91;5009539;28;6960;-76
2022/07/30 01:03:19;;;;;;;;;;;;;;;21.26;47.90;100705.13;5010728;28;6969;-76
2022/07/30 01:05:45;;;;;;;;;;;;;;;21.22;48.07;100700.78;5008403;28;6997;-76
2022/07/30 01:08:10;;;;;;;;;;;;;;;21.20;47.92;100703.34;4972443;28;6961;-76
2022/07/30 01:10:36;;;;;;;;;;;;;;;21.18;47.78;100707.69;4979192;28;7161;-76
2022/07/30 01:13:03;;;;;;;;;;;;;;;21.14;48.21;100707.66;5011101;28;7142;-74
2022/07/30 01:15:30;;;;;;;;;;;;;;;21.11;48.30;100707.63;5010053;28;7975;-74
2022/07/30 01:18:02;;;;;;;;;;;;;;;21.07;48.20;100706.72;4978368;28;7035;-75
2022/07/30 01:20:47;;;;;;;;;;;;;;;21.04;48.28;100712.78;5012646;28;7936;-75
2022/07/30 01:23:26;;;;;;;;;;;;;;;20.99;48.80;100708.38;4981665;28;6871;-75
2022/07/30 01:25:58;;;;;;;;;;;;;;;20.94;48.51;100705.72;4981451;28;7023;-75
2022/07/30 01:28:36;;;;;;;;;;;;;;;20.90;48.89;100710.03;4974798;28;6800;-76
2022/07/30 01:31:05;;;;;;;;;;;;;;;20.87;49.13;100710.00;4997090;28;7041;-75
2022/07/30 01:33:36;;;;;;;;;;;;;;;20.83;49.04;100708.19;4979417;28;6797;-75
2022/07/30 01:36:04;;;;;;;;;;;;;;;20.79;49.31;100711.63;5004062;28;6819;-75
2022/07/30 01:38:32;;;;;;;;;;;;;;;20.75;49.47;100707.22;4975716;28;6867;-75
2022/07/30 01:40:59;;;;;;;;;;;;;;;20.72;49.62;100712.41;4996039;28;6988;-75
2022/07/30 01:43:28;;;;;;;;;;;;;;;20.67;49.71;100702.81;4982993;28;6825;-75
2022/07/30 01:45:55;;;;;;;;;;;;;;;20.63;49.80;100711.44;4974037;28;7008;-75
2022/07/30 01:48:24;;;;;;;;;;;;;;;20.60;49.73;100702.72;5011672;28;6811;-75
2022/07/30 01:50:55;;;;;;;;;;;;;;;20.58;49.60;100712.25;4993736;28;6982;-75
2022/07/30 01:53:25;;;;;;;;;;;;;;;20.56;49.97;100719.16;5008429;28;6799;-75
2022/07/30 01:55:54;;;;;;;;;;;;;;;20.51;49.81;100714.75;5008320;28;7220;-75
2022/07/30 01:58:26;;;;;;;;;;;;;;;20.47;50.10;100713.00;4982363;28;6812;-75
2022/07/30 02:00:56;;;;;;;;;;;;;;;20.45;50.39;100708.63;4976736;28;7261;-75
2022/07/30 02:03:23;;;;;;;;;;;;;;;20.43;50.17;100712.94;5016642;28;9598;-75
2022/07/30 02:05:58;;;;;;;;;;;;;;;20.40;50.41;100722.47;5009597;28;7158;-77
2022/07/30 02:08:50;;;;;;;;;;;;;;;20.38;50.61;100718.97;5004273;28;6854;-77
2022/07/30 02:14:27;;;;;;;;;;;;;;;20.32;50.57;100726.69;4978154;28;6804;-77
2022/07/30 02:16:57;;;;;;;;;;;;;;;20.29;50.73;100728.38;5008640;28;7035;-77
2022/07/30 02:19:32;;;;;;;;;;;;;;;20.25;50.65;100725.75;5001354;28;6979;-77
2022/07/30 02:22:11;;;;;;;;;;;;;;;20.21;50.84;100718.72;4993868;28;7030;-77
2022/07/30 02:24:40;;;;;;;;;;;;;;;20.19;51.23;100725.66;4973973;28;6829;-77
2022/07/30 02:27:15;;;;;;;;;;;;;;;20.16;51.08;100724.72;4970920;28;7814;-75
2022/07/30 02:29:43;;;;;;;;;;;;;;;20.11;51.20;100725.56;5005666;28;7170;-76
2022/07/30 02:32:13;;;;;;;;;;;;;;;20.07;51.99;100721.13;5008259;28;6816;-75
2022/07/30 02:34:42;;;;;;;;;;;;;;;20.03;51.72;100721.06;5001262;28;7052;-75
2022/07/30 02:37:13;;;;;;;;;;;;;;;19.99;51.81;100722.78;4980286;28;6804;-75
2022/07/30 02:39:42;;;;;;;;;;;;;;;19.97;51.90;100722.75;4982217;28;7174;-75
2022/07/30 02:42:11;;;;;;;;;;;;;;;19.91;51.89;100719.16;5010887;28;7223;-75
2022/07/30 02:44:41;;;;;;;;;;;;;;;19.89;52.11;100720.84;4973235;28;6954;-75
2022/07/30 02:47:10;;;;;;;;;;;;;;;19.85;52.39;100722.56;5005656;28;7243;-75
2022/07/30 02:49:38;;;;;;;;;;;;;;;19.83;52.52;100727.72;5015099;28;7012;-75
2022/07/30 02:52:12;;;;;;;;;;;;;;;19.81;52.73;100721.63;5008525;28;7188;-75
2022/07/30 02:54:42;;;;;;;;;;;;;;;19.78;52.72;100721.56;4990515;28;7335;-75
2022/07/30 02:57:09;;;;;;;;;;;;;;;19.75;52.62;100718.94;5010849;28;6800;-75
2022/07/30 02:59:39;;;;;;;;;;;;;;;19.73;52.59;100725.84;4977168;28;6800;-75
2022/07/30 03:02:08;;;;;;;;;;;;;;;19.71;53.02;100723.19;4991180;28;7081;-75
2022/07/30 03:04:37;;;;;;;;;;;;;;;19.69;52.96;100729.22;5005449;28;6870;-75
2022/07/30 03:07:07;;;;;;;;;;;;;;;19.66;52.77;100729.19;5011032;28;7861;-75
2022/07/30 03:09:34;;;;;;;;;;;;;;;19.63;52.43;100719.59;5008668;28;7234;-75
2022/07/30 03:12:02;;;;;;;;;;;;;;;19.61;53.34;100733.44;4977042;28;7118;-75
2022/07/30 03:14:27;;;;;;;;;;;;;;;19.59;53.20;100732.53;4983161;28;7234;-75
2022/07/30 03:17:01;;;;;;;;;;;;;;;19.54;52.95;100730.75;5009268;28;7277;-75
2022/07/30 03:19:32;;;;;;;;;;;;;;;19.50;53.74;100728.91;5010089;28;7194;-75
2022/07/30 03:22:01;;;;;;;;;;;;;;;19.46;53.67;100737.53;5012758;28;6800;-75
2022/07/30 03:24:29;;;;;;;;;;;;;;;19.43;53.43;100734.88;5009882;28;7217;-75
2022/07/30 03:26:57;;;;;;;;;;;;;;;19.40;53.88;100737.41;5009240;28;7001;-75
2022/07/30 03:29:25;;;;;;;;;;;;;;;19.38;53.46;100733.91;4973570;28;6784;-75
2022/07/30 03:31:52;;;;;;;;;;;;;;;19.36;53.82;100741.72;5007314;28;7239;-75
2022/07/30 03:34:19;;;;;;;;;;;;;;;19.35;53.54;100746.88;4997858;28;8082;-75
2022/07/30 03:36:46;;;;;;;;;;;;;;;19.34;54.05;100747.72;5009170;28;6947;-75
2022/07/30 03:39:13;;;;;;;;;;;;;;;19.38;54.61;100749.50;5008063;28;6784;-75
2022/07/30 03:41:41;;;;;;;;;;;;;;;19.42;54.24;100752.19;4980927;28;7141;-75
2022/07/30 03:44:08;;;;;;;;;;;;;;;19.52;54.26;100758.44;4988381;28;7407;-75
2022/07/30 03:46:36;;;;;;;;;;;;;;;19.63;54.63;100752.53;4979913;28;6800;-75
2022/07/30 03:49:04;;;;;;;;;;;;;;;19.72;54.08;100752.69;5005610;28;7117;-75
2022/07/30 03:51:33;;;;;;;;;;;;;;;19.82;53.57;100762.38;4980292;28;7031;-75
2022/07/30 03:54:00;;;;;;;;;;;;;;;19.91;53.81;100755.56;4994978;28;7218;-76
2022/07/30 03:56:26;;;;;;;;;;;;;;;19.98;53.65;100757.44;4976953;28;6975;-76
2022/07/30 03:58:51;;;;;;;;;;;;;;;20.04;53.81;100754.94;4983708;28;6894;-75
2022/07/30 04:01:17;;;;;;;;;;;;;;;20.12;53.18;100758.53;5006650;28;7323;-76
2022/07/30 04:03:43;;;;;;;;;;;;;;;20.19;53.11;100763.81;5006428;28;7733;-75
2022/07/30 04:06:08;;;;;;;;;;;;;;;20.21;53.61;100765.56;4978250;28;7257;-75
2022/07/30 04:08:34;;;;;;;;;;;;;;;20.25;53.37;100766.50;4978954;28;6939;-76
2022/07/30 04:11:00;;;;;;;;;;;;;;;20.29;53.79;100760.50;5008208;28;6960;-76
2022/07/30 04:13:25;;;;;;;;;;;;;;;20.34;53.38;100761.41;4977438;28;7222;-75
2022/07/30 04:16:15;;;;;;;;;;;;;;;20.39;53.31;100769.28;4977507;28;6776;-75
2022/07/30 04:18:50;;;;;;;;;;;;;;;20.42;53.24;100765.84;5011577;28;7017;-76
2022/07/30 04:21:19;;;;;;;;;;;;;;;20.45;53.32;100773.69;4987076;28;7351;-76
2022/07/30 04:23:48;;;;;;;;;;;;;;;20.50;53.09;100770.28;4999992;28;8046;-76
2022/07/30 04:26:15;;;;;;;;;;;;;;;20.57;53.23;100775.59;5014534;28;6812;-76
2022/07/30 04:28:41;;;;;;;;;;;;;;;20.62;53.20;100773.94;5011417;28;8140;-76
2022/07/30 04:31:07;;;;;;;;;;;;;;;20.68;53.71;100777.47;5011598;28;7003;-75
2022/07/30 04:33:33;;;;;;;;;;;;;;;20.77;53.09;100781.06;5011974;28;6990;-76
2022/07/30 04:35:58;;;;;;;;;;;;;;;20.83;53.47;100781.13;4981484;28;6854;-76
2022/07/30 04:38:24;;;;;;;;;;;;;;;20.89;53.64;100789.03;5001616;28;6836;-76
2022/07/30 04:40:50;;;;;;;;;;;;;;;20.97;53.10;100785.66;5009236;28;7173;-77
2022/07/30 04:43:16;;;;;;;;;;;;;;;21.04;53.63;100784.84;4976383;28;6930;-76
2022/07/30 04:45:42;;;;;;;;;;;;;;;21.08;53.41;100789.25;5013216;28;7268;-76
2022/07/30 04:48:07;;;;;;;;;;;;;;;21.12;53.36;100792.75;5005491;28;6879;-76
2022/07/30 04:50:37;;;;;;;;;;;;;;;21.15;53.30;100798.00;5002984;28;7008;-75
2022/07/30 04:53:03;;;;;;;;;;;;;;;21.18;53.70;100803.22;4995916;28;7160;-75
2022/07/30 04:55:32;;;;;;;;;;;;;;;21.21;53.30;100798.06;4982591;28;7117;-76
2022/07/30 04:58:00;;;;;;;;;;;;;;;21.25;53.26;100798.97;4959162;28;8044;-76
2022/07/30 05:00:27;;;;;;;;;;;;;;;21.28;53.40;100806.81;4993992;28;7282;-75
2022/07/30 05:02:56;;;;;;;;;;;;;;;21.29;53.26;100800.75;5016903;28;7115;-75
2022/07/30 05:05:24;;;;;;;;;;;;;;;21.32;53.58;100803.38;5012001;28;7238;-76
2022/07/30 05:07:51;;;;;;;;;;;;;;;21.34;53.66;100805.13;5009514;28;6951;-76
2022/07/30 05:10:17;;;;;;;;;;;;;;;21.40;53.58;100806.06;4982166;28;6961;-76
2022/07/30 05:12:42;;;;;;;;;;;;;;;21.44;53.43;100810.44;4976811;28;6964;-76
2022/07/30 05:15:09;;;;;;;;;;;;;;;21.46;53.39;100817.44;5012382;28;6928;-76
2022/07/30 05:17:36;;;;;;;;;;;;;;;21.49;53.53;100817.44;5014398;28;6856;-76
2022/07/30 05:20:02;;;;;;;;;;;;;;;21.52;53.26;100808.78;5004621;28;6978;-76
2022/07/30 05:22:29;;;;;;;;;;;;;;;21.57;53.27;100821.88;4985103;28;6955;-76
2022/07/30 05:24:58;;;;;;;;;;;;;;;21.62;53.30;100817.56;4995095;28;7077;-75
2022/07/30 05:27:24;;;;;;;;;;;;;;;21.70;53.36;100825.50;4988535;28;7294;-75
2022/07/30 05:29:50;;;;;;;;;;;;;;;21.77;53.18;100829.88;5013198;28;7186;-76
2022/07/30 05:32:15;;;;;;;;;;;;;;;21.84;52.92;100828.22;5015766;28;6796;-75
2022/07/30 05:34:41;;;;;;;;;;;;;;;21.88;52.85;100824.78;5013076;28;6847;-76
2022/07/30 05:37:07;;;;;;;;;;;;;;;21.94;52.71;100837.88;4997282;28;7190;-76
2022/07/30 05:39:33;;;;;;;;;;;;;;;21.98;52.90;100834.41;5014814;28;7848;-76
2022/07/30 05:41:58;;;;;;;;;;;;;;;22.04;53.16;100844.03;4987180;28;6954;-76
2022/07/30 05:44:24;;;;;;;;;;;;;;;22.11;52.93;100839.72;5017875;28;6813;-76
2022/07/30 05:46:51;;;;;;;;;;;;;;;22.18;52.84;100838.91;4999907;28;7004;-76
2022/07/30 05:49:17;;;;;;;;;;;;;;;22.22;52.60;100845.91;4979335;28;7199;-76
2022/07/30 05:51:42;;;;;;;;;;;;;;;22.23;52.50;100845.03;5014470;28;6800;-76
2022/07/30 05:54:08;;;;;;;;;;;;;;;22.17;52.89;100845.88;5029403;28;7143;-76
2022/07/30 05:56:34;;;;;;;;;;;;;;;22.11;53.25;100853.66;5014981;28;6889;-76
2022/07/30 05:59:00;;;;;;;;;;;;;;;22.02;53.62;100845.75;5000100;28;7074;-76
2022/07/30 06:01:26;;;;;;;;;;;;;;;21.96;53.96;100849.19;4986680;28;7001;-76
2022/07/30 06:03:52;;;;;;;;;;;;;;;21.90;54.33;100850.00;4979491;28;7148;-77
2022/07/30 06:06:17;;;;;;;;;;;;;;;21.88;54.56;100853.47;5016672;28;8056;-76
2022/07/30 06:08:43;;;;;;;;;;;;;;;21.82;54.46;100853.41;5015042;28;6929;-76
2022/07/30 06:11:09;;;;;;;;;;;;;;;21.79;55.23;100851.66;5013309;28;7361;-76
2022/07/30 06:13:35;;;;;;;;;;;;;;;21.83;55.39;100857.78;4988914;28;7436;-77
2022/07/30 06:16:00;;;;;;;;;;;;;;;21.90;55.04;100856.97;4982822;28;6981;-76
2022/07/30 06:18:26;;;;;;;;;;;;;;;21.94;55.35;100858.75;5015625;28;7144;-76
2022/07/30 06:20:53;;;;;;;;;;;;;;;21.98;54.98;100857.91;4978938;28;7039;-76
2022/07/30 06:23:22;;;;;;;;;;;;;;;22.04;55.20;100864.91;5000740;28;7228;-76
2022/07/30 06:25:49;;;;;;;;;;;;;;;22.09;55.07;100850.16;4961575;28;7057;-76
2022/07/30 06:28:17;;;;;;;;;;;;;;;22.16;55.38;100856.28;5011490;28;7020;-76
2022/07/30 06:30:47;;;;;;;;;;;;;;;22.24;55.43;100862.44;5014611;28;7247;-77
2022/07/30 06:33:14;;;;;;;;;;;;;;;22.32;55.23;100855.53;4993939;28;7952;-76
2022/07/30 06:35:40;;;;;;;;;;;;;;;22.43;54.86;100857.34;5015473;28;7626;-76
2022/07/30 06:38:06;;;;;;;;;;;;;;;22.57;55.14;100853.09;5012451;28;6995;-76
2022/07/30 06:40:32;;;;;;;;;;;;;;;22.73;54.83;100850.56;5003705;28;7020;-76
2022/07/30 06:42:58;;;;;;;;;;;;;;;22.88;54.77;100849.78;5015920;28;7022;-76
2022/07/30 06:45:24;;;;;;;;;;;;;;;23.06;54.60;100843.72;4986158;28;6940;-76
2022/07/30 06:47:49;;;;;;;;;;;;;;;23.24;54.39;100857.72;4994795;28;7228;-77
2022/07/30 06:50:17;;;;;;;;;;;;;;;23.37;54.06;100853.44;5012890;28;7025;-76
2022/07/30 06:52:43;;;;;;;;;;;;;;;23.48;53.39;100856.09;5008762;28;7023;-76
2022/07/30 06:55:09;;;;;;;;;;;;;;;23.61;53.67;100854.34;4982282;28;6791;-76
2022/07/30 06:57:34;;;;;;;;;;;;;;;23.75;53.27;100850.00;5009958;28;7114;-77
2022/07/30 07:00:04;;;;;;;;;;;;;;;23.93;53.32;100849.13;5013738;28;7105;-77
2022/07/30 07:02:30;;;;;;;;;;;;;;;24.18;52.68;100851.75;4980959;28;6974;-77
2022/07/30 07:04:56;;;;;;;;;;;;;;;24.40;52.21;100851.72;5010282;28;6966;-77
2022/07/30 07:07:21;;;;;;;;;;;;;;;24.57;51.50;100850.81;5009370;28;7228;-77
2022/07/30 07:09:47;;;;;;;;;;;;;;;24.72;50.95;100850.72;4996142;28;7342;-77
2022/07/30 07:12:12;;;;;;;;;;;;;;;24.92;51.10;100849.84;5029524;28;6981;-77
2022/07/30 07:14:38;;;;;;;;;;;;;;;25.07;50.42;100857.63;5016886;28;8157;-77
2022/07/30 07:17:04;;;;;;;;;;;;;;;25.20;49.52;100861.03;4981508;28;6846;-77
2022/07/30 07:19:29;;;;;;;;;;;;;;;25.31;49.72;100866.25;5011334;28;7258;-77
2022/07/30 07:21:55;;;;;;;;;;;;;;;25.40;49.32;100867.03;4986065;28;6842;-77
2022/07/30 07:24:21;;;;;;;;;;;;;;;25.42;48.46;100868.78;5027020;28;7444;-76
2022/07/30 07:26:46;;;;;;;;;;;;;;;25.44;48.74;100868.78;4980981;28;6942;-77
2022/07/30 07:29:12;;;;;;;;;;;;;;;25.50;48.84;100871.41;5014323;28;7028;-77
2022/07/30 07:31:38;;;;;;;;;;;;;;;25.57;48.62;100862.59;5031051;28;6971;-77
2022/07/30 07:34:03;;;;;;;;;;;;;;;25.74;48.90;100869.47;4980960;28;6772;-77
2022/07/30 07:36:29;;;;;;;;;;;;;;;25.91;48.35;100867.59;5012118;28;7471;-77
2022/07/30 07:38:54;;;;;;;;;;;;;;;26.08;48.11;100861.31;5015132;28;7221;-77
2022/07/30 07:41:20;;;;;;;;;;;;;;;26.29;48.53;100862.03;4982381;28;6776;-77
2022/07/30 07:43:46;;;;;;;;;;;;;;;26.52;47.27;100872.31;5012182;28;7216;-77
2022/07/30 07:46:15;;;;;;;;;;;;;;;26.67;46.81;100870.38;4994886;28;6991;-77
2022/07/30 07:48:42;;;;;;;;;;;;;;;26.75;46.15;100882.56;4994288;28;7059;-77
2022/07/30 07:51:08;;;;;;;;;;;;;;;26.72;46.03;100866.78;5014806;28;6954;-77
2022/07/30 07:53:33;;;;;;;;;;;;;;;26.76;45.91;100875.50;5014857;28;6783;-77
2022/07/30 07:55:59;;;;;;;;;;;;;;;26.83;45.68;100869.31;4983810;28;7245;-76
2022/07/30 07:58:25;;;;;;;;;;;;;;;26.89;45.54;100865.75;4981806;28;6817;-77
2022/07/30 08:00:51;;;;;;;;;;;;;;;26.97;45.13;100865.66;5030978;28;7092;-77
2022/07/30 08:03:16;;;;;;;;;;;;;;;27.07;45.26;100867.25;5009101;28;7187;-76
2022/07/30 08:05:42;;;;;;;;;;;;;;;27.10;44.10;100875.13;5013349;28;7041;-77
2022/07/30 08:08:08;;;;;;;;;;;;;;;27.03;43.68;100871.69;5012433;28;6971;-77
2022/07/30 08:10:33;;;;;;;;;;;;;;;26.94;43.69;100868.31;5012496;28;6856;-77
2022/07/30 08:13:01;;;;;;;;;;;;;;;26.97;44.43;100865.66;5011152;28;7197;-77
2022/07/30 08:15:26;;;;;;;;;;;;;;;27.11;44.24;100871.59;4998924;28;7135;-77
2022/07/30 08:17:52;;;;;;;;;;;;;;;27.26;43.79;100870.53;5014880;28;7048;-76
2022/07/30 08:20:18;;;;;;;;;;;;;;;27.41;43.37;100868.53;5010703;28;6779;-77
2022/07/30 08:22:44;;;;;;;;;;;;;;;27.48;42.99;100871.97;5029727;28;6959;-77
2022/07/30 08:25:09;;;;;;;;;;;;;;;27.41;42.50;100868.53;4979705;28;6800;-76
2022/07/30 08:27:35;;;;;;;;;;;;;;;27.31;42.74;100867.81;5013566;28;6805;-77
2022/07/30 08:30:07;;;;;;;;;;;;;;;27.29;42.88;100864.34;4999962;28;7044;-77
2022/07/30 08:32:33;;;;;;;;;;;;;;;27.37;43.65;100862.44;4992222;28;7123;-77
2022/07/30 08:34:59;;;;;;;;;;;;;;;27.61;43.32;100865.66;5015902;28;6892;-77
2022/07/30 08:37:24;;;;;;;;;;;;;;;27.74;42.42;100871.59;5013303;28;6768;-77
2022/07/30 08:39:50;;;;;;;;;;;;;;;27.77;41.82;100868.06;5011964;28;7213;-77
2022/07/30 08:42:16;;;;;;;;;;;;;;;27.80;42.01;100868.84;4995796;28;7205;-77
2022/07/30 08:44:45;;;;;;;;;;;;;;;27.94;41.94;100865.97;5028175;28;6953;-77
2022/07/30 08:47:17;;;;;;;;;;;;;;;28.06;41.35;100867.53;4982615;28;6819;-77
2022/07/30 08:49:45;;;;;;;;;;;;;;;28.29;40.99;100863.63;5009059;28;7894;-77
2022/07/30 08:52:10;;;;;;;;;;;;;;;28.74;40.14;100860.16;4984061;28;7148;-77
2022/07/30 08:54:39;;;;;;;;;;;;;;;29.37;39.70;100862.34;5013177;28;7175;-77
2022/07/30 08:57:05;;;;;;;;;;;;;;;29.71;38.58;100874.75;4978153;28;6970;-77
2022/07/30 08:59:31;;;;;;;;;;;;;;;29.62;36.81;100874.97;4981971;28;6775;-77
2022/07/30 09:01:57;;;;;;;;;;;;;;;29.41;36.81;100879.81;5009226;28;6791;-77
2022/07/30 09:04:23;;;;;;;;;;;;;;;29.60;36.96;100871.50;5014742;28;7185;-77
2022/07/30 09:06:49;;;;;;;;;;;;;;;29.96;36.92;100871.50;5015919;28;7169;-77
2022/07/30 09:09:15;;;;;;;;;;;;;;;30.50;36.00;100874.47;5012207;28;7449;-77
2022/07/30 09:11:41;;;;;;;;;;;;;;;31.12;35.53;100866.56;5018226;28;6953;-77
2022/07/30 09:14:13;;;;;;;;;;;;;;;31.77;34.54;100876.88;4985400;28;7159;-77
2022/07/30 09:16:40;;;;;;;;;;;;;;;32.27;33.57;100863.69;4997863;28;7088;-77
2022/07/30 09:19:20;;;;;;;;;;;;;;;32.30;32.96;100864.50;5005739;28;6976;-76
2022/07/30 09:21:59;;;;;;;;;;;;;;;32.30;32.91;100867.16;5015549;28;6807;-77
2022/07/30 09:24:26;;;;;;;;;;;;;;;32.57;32.20;100864.47;5015224;28;6988;-77
2022/07/30 09:27:01;;;;;;;;;;;;;;;32.95;32.26;100859.50;4985314;28;6961;-77
2022/07/30 09:29:30;;;;;;;;;;;;;;;33.41;31.01;100858.56;5012310;28;6795;-77
2022/07/30 09:31:59;;;;;;;;;;;;;;;33.77;30.43;100852.69;4995776;28;6796;-77
2022/07/30 09:34:37;;;;;;;;;;;;;;;34.23;29.83;100849.00;4971899;28;6979;-77
2022/07/30 09:37:17;;;;;;;;;;;;;;;34.69;28.98;100841.59;5001272;28;7264;-77
2022/07/30 09:39:43;;;;;;;;;;;;;;;35.12;28.59;100841.38;5002129;28;7063;-77
2022/07/30 09:42:25;;;;;;;;;;;;;;;35.55;27.74;100837.50;5014208;28;7195;-77
2022/07/30 09:45:09;;;;;;;;;;;;;;;35.91;26.42;100849.94;4978344;28;6964;-77
2022/07/30 09:47:39;;;;;;;;;;;;;;;36.10;26.02;100843.66;5013237;28;7246;-77
2022/07/30 09:50:09;;;;;;;;;;;;;;;36.34;25.53;100841.50;4986135;28;8231;-77
2022/07/30 09:52:39;;;;;;;;;;;;;;;36.63;25.65;100851.53;5005454;28;6997;-77
2022/07/30 09:55:05;;;;;;;;;;;;;;;36.81;25.47;100844.31;5013824;28;6803;-77
2022/07/30 09:57:31;;;;;;;;;;;;;;;37.04;24.52;100851.03;5016032;28;7920;-78
2022/07/30 10:00:14;;;;;;;;;;;;;;;37.35;24.57;100853.75;5000135;28;8087;-77
2022/07/30 10:02:40;;;;;;;;;;;;;;;37.64;24.27;100845.88;4973025;28;11502;-77
2022/07/30 10:05:14;;;;;;;;;;;;;;;37.95;23.64;100845.84;5015683;28;6978;-77
2022/07/30 10:07:55;;;;;;;;;;;;;;;38.19;23.71;100848.84;5032216;28;7266;-77
2022/07/30 10:10:29;;;;;;;;;;;;;;;38.51;23.40;100843.31;4998641;28;7470;-77
2022/07/30 10:13:01;;;;;;;;;;;;;;;38.79;22.80;100841.53;4983716;28;6800;-77
2022/07/30 10:15:31;;;;;;;;;;;;;;;38.93;22.48;100847.81;5013566;28;6997;-77
2022/07/30 10:17:58;;;;;;;;;;;;;;;38.98;22.34;100846.59;5015842;28;6955;-77
2022/07/30 10:20:26;;;;;;;;;;;;;;;38.88;22.29;100846.28;5017048;28;8009;-77
2022/07/30 10:22:52;;;;;;;;;;;;;;;38.67;21.77;100843.19;5003513;28;7012;-78
2022/07/30 10:25:24;;;;;;;;;;;;;;;38.45;22.68;100841.84;5014157;28;6796;-78
2022/07/30 10:27:51;;;;;;;;;;;;;;;38.52;22.32;100845.03;4987459;28;7145;-77
2022/07/30 10:30:18;;;;;;;;;;;;;;;38.67;22.21;100853.88;4983883;28;6796;-78
2022/07/30 10:32:45;;;;;;;;;;;;;;;38.77;21.63;100846.13;4985476;28;6792;-77
2022/07/30 10:35:12;;;;;;;;;;;;;;;38.86;21.77;100839.31;5016038;28;6792;-77
2022/07/30 10:37:49;;;;;;;;;;;;;;;39.00;21.38;100833.94;4977115;28;7332;-77
2022/07/30 10:40:37;;;;;;;;;;;;;;;38.98;21.08;100824.28;5014721;28;7260;-78
2022/07/30 10:43:44;;;;;;;;;;;;;;;39.07;21.30;100831.72;5013779;28;6800;-78
2022/07/30 10:47:04;;;;;;;;;;;;;;;39.12;21.18;100832.28;5010078;28;7187;-77
2022/07/30 10:49:30;;;;;;;;;;;;;;;38.96;21.26;100820.88;4982459;28;7451;-77
2022/07/30 10:51:56;;;;;;;;;;;;;;;38.84;21.00;100823.34;5031196;28;7058;-77
2022/07/30 10:54:36;;;;;;;;;;;;;;;38.59;20.86;100822.25;5015071;28;6783;-77
2022/07/30 10:57:05;;;;;;;;;;;;;;;38.53;20.61;100832.50;5015292;28;7019;-77
2022/07/30 10:59:54;;;;;;;;;;;;;;;38.65;21.17;100842.41;4995121;28;7304;-77
2022/07/30 11:02:22;;;;;;;;;;;;;;;38.85;20.75;100827.75;4980970;28;7093;-77
2022/07/30 11:04:49;;;;;;;;;;;;;;;39.10;20.89;100838.69;4976286;28;6947;-77
2022/07/30 11:07:20;;;;;;;;;;;;;;;39.42;20.36;100833.03;4979724;28;6800;-77
2022/07/30 11:09:51;;;;;;;;;;;;;;;39.78;20.33;100822.56;4984780;28;6807;-77
2022/07/30 11:12:44;;;;;;;;;;;;;;;40.21;20.02;100824.94;4982302;28;6816;-77
2022/07/30 11:15:14;;;;;;;;;;;;;;;40.42;19.10;100827.06;4979341;28;6804;-78
2022/07/30 11:18:03;;;;;;;;;;;;;;;40.27;19.03;100816.44;5000841;28;6965;-77
2022/07/30 11:20:31;;;;;;;;;;;;;;;40.06;19.18;100826.00;4985872;28;6796;-77
2022/07/30 11:23:19;;;;;;;;;;;;;;;39.80;19.40;100826.00;5015141;28;7058;-77
2022/07/30 11:25:46;;;;;;;;;;;;;;;39.82;19.64;100824.06;4981960;28;7476;-77
2022/07/30 11:28:51;;;;;;;;;;;;;;;39.97;19.12;100814.97;5011212;28;7071;-77
2022/07/30 11:31:36;;;;;;;;;;;;;;;40.05;19.40;100825.16;4980840;28;6867;-77
2022/07/30 11:34:19;;;;;;;;;;;;;;;40.08;19.34;100829.44;4984792;28;7275;-77
2022/07/30 11:37:15;;;;;;;;;;;;;;;40.03;19.28;100816.34;5012577;28;7000;-77
2022/07/30 11:39:52;;;;;;;;;;;;;;;39.88;19.16;100812.91;4983106;28;7713;-78
2022/07/30 11:42:29;;;;;;;;;;;;;;;39.47;19.07;100819.31;5011864;28;7075;-77
2022/07/30 11:45:14;;;;;;;;;;;;;;;38.89;19.72;100826.56;4995433;28;6975;-77
2022/07/30 11:47:42;;;;;;;;;;;;;;;38.76;19.92;100821.16;4981616;28;7206;-77
2022/07/30 11:50:27;;;;;;;;;;;;;;;38.75;20.62;100821.28;5002818;28;6976;-78
2022/07/30 11:52:57;;;;;;;;;;;;;;;38.89;20.38;100815.88;4979485;28;7191;-77
2022/07/30 11:55:29;;;;;;;;;;;;;;;39.11;20.12;100811.78;4992455;28;8831;-77
2022/07/30 11:57:57;;;;;;;;;;;;;;;39.29;19.43;100811.50;5014368;28;6978;-77
2022/07/30 12:00:24;;;;;;;;;;;;;;;39.33;19.57;100813.03;4976485;28;6900;-77
2022/07/30 12:02:50;;;;;;;;;;;;;;;39.25;19.11;100813.53;4976543;28;6784;-77
2022/07/30 12:05:24;;;;;;;;;;;;;;;39.09;19.36;100813.72;4982994;28;7211;-78
2022/07/30 12:07:56;;;;;;;;;;;;;;;38.97;19.38;100814.53;5015793;28;6804;-77
2022/07/30 12:10:21;;;;;;;;;;;;;;;38.99;19.58;100820.66;5013496;28;7742;-77
2022/07/30 12:12:47;;;;;;;;;;;;;;;39.20;19.68;100822.84;5014522;28;7160;-76
2022/07/30 12:15:32;;;;;;;;;;;;;;;39.41;19.51;100816.09;4981845;28;6852;-77
2022/07/30 12:17:59;;;;;;;;;;;;;;;39.46;19.69;100812.22;4985300;28;7282;-77
2022/07/30 12:20:24;;;;;;;;;;;;;;;39.49;19.54;100814.69;4982430;28;6956;-77
2022/07/30 12:22:50;;;;;;;;;;;;;;;39.29;19.09;100819.56;4980787;28;7220;-77
2022/07/30 12:25:16;;;;;;;;;;;;;;;38.85;19.11;100813.50;4981311;28;7101;-77
2022/07/30 12:27:47;;;;;;;;;;;;;;;38.44;19.19;100813.38;5000678;28;6842;-77
2022/07/30 12:30:15;;;;;;;;;;;;;;;38.06;19.54;100805.94;4981423;28;6788;-77
2022/07/30 12:32:46;;;;;;;;;;;;;;;37.84;20.35;100815.25;5011361;28;11199;-77
2022/07/30 12:35:12;;;;;;;;;;;;;;;37.85;20.75;100811.63;5030632;28;6986;-77
2022/07/30 12:37:38;;;;;;;;;;;;;;;37.71;20.72;100811.59;4991215;28;6977;-77
2022/07/30 12:40:11;;;;;;;;;;;;;;;37.38;20.86;100817.03;4980238;28;6792;-77
2022/07/30 12:42:53;;;;;;;;;;;;;;;37.24;20.94;100809.84;4982970;28;7723;-77
2022/07/30 12:45:32;;;;;;;;;;;;;;;37.39;21.38;100817.91;4988146;28;6999;-77
2022/07/30 12:47:58;;;;;;;;;;;;;;;37.69;21.59;100809.03;5017484;28;7250;-77
2022/07/30 12:50:26;;;;;;;;;;;;;;;38.01;21.14;100800.88;4987727;28;7037;-77
2022/07/30 12:52:54;;;;;;;;;;;;;;;38.28;20.82;100800.09;4987248;28;6848;-77
2022/07/30 12:55:40;;;;;;;;;;;;;;;38.57;20.22;100797.41;4972891;28;7210;-78
2022/07/30 12:58:06;;;;;;;;;;;;;;;38.53;20.11;100798.56;4978126;28;7227;-77
2022/07/30 13:00:52;;;;;;;;;;;;;;;38.10;19.58;100791.44;5002393;28;7162;-77